Time;durP1;ratioP1;P1;durP2;ratioP2;P2;SDS_P1;SDS_P2;PMS_P1;PMS_P2;Temp;Humidity;BMP_temperature;BMP_pressure;BME280_temperature;BME280_humidity;BME280_pressure;Samples;Min_cycle;Max_cycle;Signal;HPM_P1;HPM_P2
2023/05/30 00:01:51;;;;;;;;;20.00;18.00;;;;;;;;6488038;39;8930;-51
2023/05/30 00:07:54;;;;;;;;;22.33;18.33;;;;;;;;6487875;39;9331;-50
2023/05/30 00:13:58;;;;;;;;;14.00;13.33;;;;;;;;6489787;31;8982;-49
2023/05/30 00:20:00;;;;;;;;;23.00;18.00;;;;;;;;6487872;46;8891;-50
2023/05/30 00:26:03;;;;;;;;;17.00;17.00;;;;;;;;6487423;47;8907;-50
2023/05/30 00:32:06;;;;;;;;;21.33;19.00;;;;;;;;6488141;39;8924;-51
2023/05/30 00:38:10;;;;;;;;;14.33;14.33;;;;;;;;6488412;39;8895;-51
2023/05/30 00:44:13;;;;;;;;;18.67;17.33;;;;;;;;6488214;31;9562;-49
2023/05/30 00:50:18;;;;;;;;;18.67;18.00;;;;;;;;6488727;39;8892;-51
2023/05/30 00:56:23;;;;;;;;;21.67;20.33;;;;;;;;6488206;39;8904;-50
2023/05/30 01:02:32;;;;;;;;;23.00;23.00;;;;;;;;6486922;47;8900;-50
2023/05/30 01:08:35;;;;;;;;;16.00;16.00;;;;;;;;6486541;39;8856;-49
2023/05/30 01:14:49;;;;;;;;;21.00;20.33;;;;;;;;6487322;47;8947;-49
2023/05/30 01:20:59;;;;;;;;;21.00;19.00;;;;;;;;6485957;39;8828;-49
2023/05/30 01:27:10;;;;;;;;;19.67;18.00;;;;;;;;6486246;47;8908;-48
2023/05/30 01:33:14;;;;;;;;;20.67;20.33;;;;;;;;6486123;39;8912;-49
2023/05/30 01:39:16;;;;;;;;;20.33;20.33;;;;;;;;6488439;39;8907;-51
2023/05/30 01:45:27;;;;;;;;;22.67;21.67;;;;;;;;6489743;39;8840;-52
2023/05/30 01:51:38;;;;;;;;;18.67;18.00;;;;;;;;6489449;31;8975;-48
2023/05/30 01:57:46;;;;;;;;;21.67;20.67;;;;;;;;6488105;46;8876;-51
2023/05/30 02:03:56;;;;;;;;;23.33;21.67;;;;;;;;6488463;39;8952;-50
2023/05/30 02:09:59;;;;;;;;;22.33;21.00;;;;;;;;6488650;46;8926;-48
2023/05/30 02:16:01;;;;;;;;;18.33;17.67;;;;;;;;6488518;31;8975;-53
2023/05/30 02:22:09;;;;;;;;;25.00;22.00;;;;;;;;6488319;39;8883;-49
2023/05/30 02:28:13;;;;;;;;;22.00;20.00;;;;;;;;6488388;39;8954;-50
2023/05/30 02:34:15;;;;;;;;;23.67;20.33;;;;;;;;6489095;31;8863;-48
2023/05/30 02:40:19;;;;;;;;;24.67;23.33;;;;;;;;6488219;39;8882;-47
2023/05/30 02:46:22;;;;;;;;;24.00;17.67;;;;;;;;6488403;39;8897;-49
2023/05/30 02:52:27;;;;;;;;;22.00;19.33;;;;;;;;6487252;31;8925;-48
2023/05/30 02:58:34;;;;;;;;;23.00;19.33;;;;;;;;6487972;39;9513;-53
2023/05/30 03:04:46;;;;;;;;;18.33;18.00;;;;;;;;6487677;39;9482;-51
2023/05/30 03:10:50;;;;;;;;;19.33;18.33;;;;;;;;6487458;46;8919;-48
2023/05/30 03:16:54;;;;;;;;;20.33;18.67;;;;;;;;6488193;39;8969;-52
2023/05/30 03:22:58;;;;;;;;;22.33;20.00;;;;;;;;6487728;31;8885;-53
2023/05/30 03:29:02;;;;;;;;;23.67;20.00;;;;;;;;6487996;39;8914;-52
2023/05/30 03:35:05;;;;;;;;;22.67;21.67;;;;;;;;6487111;46;8909;-49
2023/05/30 03:41:10;;;;;;;;;14.00;13.33;;;;;;;;6487672;39;8842;-52
2023/05/30 03:47:12;;;;;;;;;21.67;18.33;;;;;;;;6487060;39;8877;-50
2023/05/30 03:53:15;;;;;;;;;18.33;18.33;;;;;;;;6487500;31;8902;-53
2023/05/30 03:59:17;;;;;;;;;21.67;21.67;;;;;;;;6487446;31;8917;-50
2023/05/30 04:05:20;;;;;;;;;19.00;19.00;;;;;;;;6463249;39;9003;-50
2023/05/30 04:11:23;;;;;;;;;23.67;19.67;;;;;;;;6490621;39;8831;-47
2023/05/30 09:07:03;;;;;;;;;12.25;12.25;;;;;;;;6492363;39;9008;-54
2023/05/30 09:13:06;;;;;;;;;14.50;13.00;;;;;;;;6491187;39;9017;-55
2023/05/30 09:19:09;;;;;;;;;15.00;15.00;;;;;;;;6492638;39;8871;-55
2023/05/30 09:25:15;;;;;;;;;9.50;9.50;;;;;;;;6489658;39;8922;-57
2023/05/30 09:31:18;;;;;;;;;15.75;14.75;;;;;;;;6488858;31;8969;-57
2023/05/30 09:37:21;;;;;;;;;11.50;10.75;;;;;;;;6488243;39;8923;-57
2023/05/30 09:43:35;;;;;;;;;9.25;9.00;;;;;;;;6489095;31;8911;-55
2023/05/30 09:49:41;;;;;;;;;14.75;14.00;;;;;;;;6491320;46;8874;-57
2023/05/30 09:55:50;;;;;;;;;14.50;12.25;;;;;;;;6489606;31;8940;-56
2023/05/30 10:02:00;;;;;;;;;16.25;14.75;;;;;;;;6490281;46;9049;-58
2023/05/30 10:08:06;;;;;;;;;13.50;13.50;;;;;;;;6488223;46;8935;-54
2023/05/30 10:14:11;;;;;;;;;15.75;14.75;;;;;;;;6488604;36;9450;-57
2023/05/30 10:20:17;;;;;;;;;16.25;15.00;;;;;;;;6489918;31;8900;-55
2023/05/30 10:26:27;;;;;;;;;11.25;10.25;;;;;;;;6489880;39;8921;-56
2023/05/30 10:32:35;;;;;;;;;9.75;9.75;;;;;;;;6534682;31;8935;-57
2023/05/30 10:38:51;;;;;;;;;13.00;12.50;;;;;;;;6489551;31;9048;-54
2023/05/30 10:45:05;;;;;;;;;11.00;10.00;;;;;;;;6489853;31;8974;-55
2023/05/30 10:51:08;;;;;;;;;11.25;11.00;;;;;;;;6490259;39;9618;-56
2023/05/30 10:57:14;;;;;;;;;10.75;10.25;;;;;;;;6488856;39;9527;-55
2023/05/30 11:03:35;;;;;;;;;9.25;9.25;;;;;;;;6488440;31;9001;-56
2023/05/30 11:09:59;;;;;;;;;8.25;8.25;;;;;;;;6488388;31;9021;-56
2023/05/30 11:16:21;;;;;;;;;8.25;7.25;;;;;;;;6487935;39;8964;-57
2023/05/30 11:22:25;;;;;;;;;11.25;9.75;;;;;;;;6489764;39;8998;-55
2023/05/30 11:28:34;;;;;;;;;11.25;10.25;;;;;;;;6486017;46;8913;-55
2023/05/30 11:34:38;;;;;;;;;14.25;12.00;;;;;;;;6487307;46;8903;-56
2023/05/30 11:40:46;;;;;;;;;11.25;11.25;;;;;;;;6489066;31;9695;-57
2023/05/30 11:46:58;;;;;;;;;8.25;8.25;;;;;;;;6489891;39;8934;-57
2023/05/30 11:53:01;;;;;;;;;16.00;12.50;;;;;;;;6488580;39;8917;-58
2023/05/30 11:59:04;;;;;;;;;13.00;10.75;;;;;;;;6488947;39;8923;-56
2023/05/30 12:05:07;;;;;;;;;13.50;12.50;;;;;;;;6488219;31;8980;-56
2023/05/30 12:11:11;;;;;;;;;10.50;10.50;;;;;;;;6488620;39;9038;-57
2023/05/30 12:17:20;;;;;;;;;12.50;11.75;;;;;;;;6490899;31;8961;-57
2023/05/30 12:23:24;;;;;;;;;8.75;8.75;;;;;;;;6486380;39;8954;-57
2023/05/30 12:29:31;;;;;;;;;9.00;9.00;;;;;;;;6487052;39;8922;-56
2023/05/30 12:35:34;;;;;;;;;11.00;10.25;;;;;;;;6487871;31;8927;-58
2023/05/30 12:41:40;;;;;;;;;12.75;11.25;;;;;;;;6488809;47;8915;-56
2023/05/30 12:47:43;;;;;;;;;13.50;12.25;;;;;;;;6488213;47;8914;-58
2023/05/30 12:53:52;;;;;;;;;10.25;9.25;;;;;;;;6489273;47;9026;-55
2023/05/30 12:59:56;;;;;;;;;10.50;10.50;;;;;;;;6489474;47;8960;-53
2023/05/30 13:05:58;;;;;;;;;11.75;11.75;;;;;;;;6489832;39;9014;-56
2023/05/30 13:12:03;;;;;;;;;26.50;23.25;;;;;;;;6489836;31;8905;-58
2023/05/30 13:18:05;;;;;;;;;10.25;10.25;;;;;;;;6489982;39;8900;-57
2023/05/30 13:24:08;;;;;;;;;24.25;23.25;;;;;;;;6487971;39;8930;-56
2023/05/30 13:30:12;;;;;;;;;19.50;17.75;;;;;;;;6488159;47;8915;-55
2023/05/30 13:36:14;;;;;;;;;14.00;13.50;;;;;;;;6489872;39;8945;-56
2023/05/30 13:42:17;;;;;;;;;14.25;12.00;;;;;;;;6490973;39;8899;-55
2023/05/30 13:48:20;;;;;;;;;14.00;13.25;;;;;;;;6487940;39;8879;-56
2023/05/30 13:54:23;;;;;;;;;16.75;12.00;;;;;;;;6490666;39;8911;-56
2023/05/30 14:00:25;;;;;;;;;14.50;13.00;;;;;;;;6491511;39;9009;-57
2023/05/30 14:06:28;;;;;;;;;13.75;12.00;;;;;;;;6493724;39;9553;-56
2023/05/30 14:12:35;;;;;;;;;13.67;12.00;;;;;;;;6490079;46;8925;-56
2023/05/30 14:18:44;;;;;;;;;13.00;13.00;;;;;;;;6308938;31;10001838;-57
2023/05/30 14:24:49;;;;;;;;;12.50;11.75;;;;;;;;6491920;39;8848;-57
2023/05/30 14:30:52;;;;;;;;;15.50;14.75;;;;;;;;6310733;39;10000922;-56
2023/05/30 14:36:54;;;;;;;;;13.50;13.00;;;;;;;;6491969;46;8930;-55
2023/05/30 14:42:57;;;;;;;;;16.25;13.50;;;;;;;;6490376;46;8896;-57
2023/05/30 14:49:00;;;;;;;;;14.75;14.00;;;;;;;;6490095;39;8958;-55
2023/05/30 14:55:02;;;;;;;;;14.00;10.67;;;;;;;;6490699;39;8921;-57
2023/05/30 15:01:05;;;;;;;;;14.75;12.00;;;;;;;;6490479;39;9088;-57
2023/05/30 15:07:28;;;;;;;;;15.50;14.75;;;;;;;;6490394;39;8951;-55
2023/05/30 15:13:30;;;;;;;;;13.50;12.50;;;;;;;;6488900;39;8998;-55
2023/05/30 15:19:33;;;;;;;;;13.00;12.50;;;;;;;;6489599;31;8992;-58
2023/05/30 15:25:35;;;;;;;;;13.00;12.25;;;;;;;;6490271;39;9542;-57
2023/05/30 15:31:37;;;;;;;;;16.75;16.25;;;;;;;;6489222;46;8858;-55
2023/05/30 15:37:41;;;;;;;;;14.75;12.50;;;;;;;;6489168;31;8939;-54
2023/05/30 15:43:43;;;;;;;;;20.00;18.25;;;;;;;;6489914;39;8941;-57
2023/05/30 15:49:45;;;;;;;;;15.25;14.25;;;;;;;;6490366;39;8854;-59
2023/05/30 15:55:48;;;;;;;;;12.50;12.50;;;;;;;;6488701;39;9001;-55
2023/05/30 16:01:50;;;;;;;;;19.00;17.33;;;;;;;;6487914;46;9082;-56
2023/05/30 16:07:53;;;;;;;;;13.50;12.50;;;;;;;;6488155;31;9284;-57
2023/05/30 16:13:56;;;;;;;;;13.50;13.50;;;;;;;;6486087;46;8930;-53
2023/05/30 16:19:58;;;;;;;;;15.50;15.50;;;;;;;;6489265;31;8891;-56
2023/05/30 16:26:00;;;;;;;;;18.00;16.25;;;;;;;;6487509;39;8906;-56
2023/05/30 16:32:03;;;;;;;;;14.75;14.00;;;;;;;;6489401;39;8883;-57
2023/05/30 16:38:08;;;;;;;;;16.00;14.75;;;;;;;;6489743;39;8846;-56
2023/05/30 16:44:15;;;;;;;;;15.50;14.50;;;;;;;;6488186;39;8879;-57
2023/05/30 16:50:18;;;;;;;;;15.00;15.00;;;;;;;;6489246;39;8819;-55
2023/05/30 16:56:21;;;;;;;;;17.25;16.25;;;;;;;;6308394;39;10000219;-56
2023/05/30 17:02:23;;;;;;;;;13.75;13.50;;;;;;;;6489070;39;8946;-55
2023/05/30 17:08:27;;;;;;;;;14.00;14.00;;;;;;;;6490402;39;8926;-56
2023/05/30 17:14:29;;;;;;;;;16.50;16.25;;;;;;;;6489880;39;8898;-55
2023/05/30 17:20:32;;;;;;;;;21.25;19.25;;;;;;;;6490288;46;8840;-56
2023/05/30 17:26:37;;;;;;;;;18.25;17.50;;;;;;;;6489818;46;8874;-56
2023/05/30 17:32:40;;;;;;;;;25.50;22.00;;;;;;;;6490314;39;8867;-56
2023/05/30 17:38:43;;;;;;;;;16.75;16.75;;;;;;;;6489572;39;8883;-56
2023/05/30 17:44:45;;;;;;;;;14.33;13.33;;;;;;;;6489833;31;8843;-55
2023/05/30 17:50:49;;;;;;;;;14.00;13.00;;;;;;;;6490615;39;8830;-56
2023/05/30 17:56:53;;;;;;;;;18.50;18.50;;;;;;;;6489882;31;8867;-54
2023/05/30 18:02:57;;;;;;;;;22.25;22.25;;;;;;;;6490944;39;9150;-54
2023/05/30 18:09:00;;;;;;;;;20.00;20.00;;;;;;;;6489774;31;8855;-55
2023/05/30 18:15:03;;;;;;;;;24.00;22.50;;;;;;;;6489830;39;8866;-55
2023/05/30 18:21:14;;;;;;;;;23.00;20.50;;;;;;;;6490514;39;8926;-55
2023/05/30 18:27:17;;;;;;;;;23.50;19.00;;;;;;;;6489573;31;8858;-54
2023/05/30 18:33:20;;;;;;;;;19.75;19.50;;;;;;;;6490257;39;8868;-55
2023/05/30 18:39:22;;;;;;;;;23.75;22.25;;;;;;;;6490257;39;8941;-53
2023/05/30 18:45:24;;;;;;;;;22.25;21.50;;;;;;;;6489711;39;8914;-56
2023/05/30 18:51:28;;;;;;;;;19.50;18.00;;;;;;;;6490266;39;8850;-54
2023/05/30 18:57:30;;;;;;;;;26.25;24.00;;;;;;;;6489302;39;8899;-55
2023/05/30 19:03:33;;;;;;;;;20.50;18.50;;;;;;;;6489846;46;8926;-56
2023/05/30 19:09:35;;;;;;;;;21.75;19.50;;;;;;;;6490414;31;9585;-55
2023/05/30 19:15:37;;;;;;;;;21.50;19.75;;;;;;;;6488936;39;8890;-55
2023/05/30 19:21:40;;;;;;;;;18.50;17.25;;;;;;;;6490157;39;8921;-54
2023/05/30 19:27:50;;;;;;;;;17.00;15.00;;;;;;;;6488484;46;8874;-54
2023/05/30 19:33:52;;;;;;;;;21.00;19.00;;;;;;;;6490209;39;8941;-56
2023/05/30 19:39:55;;;;;;;;;19.75;19.25;;;;;;;;6488709;46;8934;-54
2023/05/30 19:45:57;;;;;;;;;20.25;20.25;;;;;;;;6490166;31;9530;-54
2023/05/30 19:51:59;;;;;;;;;18.50;18.00;;;;;;;;6488677;46;8874;-56
2023/05/30 19:58:02;;;;;;;;;26.25;23.75;;;;;;;;6489203;39;8980;-55
2023/05/30 20:04:04;;;;;;;;;21.75;20.75;;;;;;;;6490260;39;8966;-55
2023/05/30 20:10:07;;;;;;;;;32.00;30.00;;;;;;;;6489581;39;8936;-57
2023/05/30 20:16:11;;;;;;;;;27.50;26.50;;;;;;;;6488670;39;8937;-56
2023/05/30 20:22:23;;;;;;;;;28.00;26.75;;;;;;;;6489808;39;8863;-55
2023/05/30 20:28:26;;;;;;;;;30.00;28.67;;;;;;;;6488808;39;8937;-57
2023/05/30 20:34:29;;;;;;;;;31.67;28.00;;;;;;;;6489232;39;8867;-52
2023/05/30 20:40:32;;;;;;;;;30.50;29.25;;;;;;;;6488040;46;9049;-57
2023/05/30 20:46:34;;;;;;;;;36.00;32.33;;;;;;;;6485879;39;8914;-55
2023/05/30 20:52:37;;;;;;;;;27.50;25.50;;;;;;;;6489971;39;8921;-55
2023/05/30 20:58:40;;;;;;;;;27.25;27.25;;;;;;;;6488457;39;8906;-55
2023/05/30 21:04:42;;;;;;;;;30.67;28.67;;;;;;;;6488195;39;8887;-55
2023/05/30 21:10:46;;;;;;;;;34.00;28.00;;;;;;;;6487671;47;8879;-55
2023/05/30 21:16:48;;;;;;;;;27.75;27.00;;;;;;;;6487569;31;8913;-55
2023/05/30 21:22:51;;;;;;;;;28.75;28.50;;;;;;;;6487832;31;8886;-53
2023/05/30 21:28:53;;;;;;;;;25.67;25.67;;;;;;;;6488317;39;9264;-56
2023/05/30 21:34:57;;;;;;;;;31.00;29.33;;;;;;;;6489437;39;9493;-56
2023/05/30 21:41:01;;;;;;;;;29.00;27.33;;;;;;;;6487577;39;8977;-52
2023/05/30 21:47:03;;;;;;;;;33.00;30.00;;;;;;;;6487508;39;8894;-54
2023/05/30 21:53:06;;;;;;;;;29.25;25.50;;;;;;;;6488919;39;8917;-54
2023/05/30 21:59:08;;;;;;;;;31.25;31.25;;;;;;;;6490420;39;9530;-55
2023/05/30 22:05:10;;;;;;;;;27.75;26.75;;;;;;;;6491268;39;9012;-54
2023/05/30 22:11:13;;;;;;;;;29.33;27.33;;;;;;;;6491033;39;9531;-55
2023/05/30 22:17:15;;;;;;;;;27.33;25.33;;;;;;;;6489062;39;8926;-55
2023/05/30 22:23:17;;;;;;;;;31.67;30.33;;;;;;;;6490147;39;8844;-54
2023/05/30 22:29:20;;;;;;;;;24.00;23.00;;;;;;;;6488783;46;8912;-54
2023/05/30 22:35:22;;;;;;;;;28.33;26.67;;;;;;;;6491616;39;8804;-56
2023/05/30 22:41:25;;;;;;;;;29.67;27.67;;;;;;;;6489477;46;8854;-55
2023/05/30 22:47:27;;;;;;;;;33.00;29.33;;;;;;;;6490711;39;9447;-53
2023/05/30 22:53:30;;;;;;;;;28.00;28.00;;;;;;;;6490262;39;8941;-55
2023/05/30 22:59:33;;;;;;;;;26.67;25.67;;;;;;;;6489215;39;8848;-56
2023/05/30 23:05:36;;;;;;;;;17.33;17.00;;;;;;;;6489774;46;8907;-54
2023/05/30 23:11:41;;;;;;;;;25.33;24.33;;;;;;;;6489678;46;8871;-55
2023/05/30 23:17:43;;;;;;;;;27.33;24.00;;;;;;;;6489898;31;8859;-56
2023/05/30 23:23:46;;;;;;;;;27.00;26.00;;;;;;;;6489041;39;8964;-55
2023/05/30 23:29:48;;;;;;;;;28.33;26.00;;;;;;;;6489423;39;8941;-55
2023/05/30 23:35:51;;;;;;;;;30.00;27.00;;;;;;;;6490148;46;8856;-55
2023/05/30 23:41:53;;;;;;;;;26.33;25.00;;;;;;;;6489516;39;8847;-53
2023/05/30 23:47:57;;;;;;;;;27.67;26.00;;;;;;;;6507030;36;8894;-54
2023/05/30 23:53:59;;;;;;;;;17.33;17.00;;;;;;;;6489764;39;8921;-55
